sensor_id;sensor_type;location;lat;lon;timestamp;pressure;altitude;pressure_sealevel;temperature;humidity
3697;BME280;60662;48.810;8.872;2022-10-16T08:35:14;96723.41;;;16.23;83.42
3697;BME280;60662;48.810;8.872;2022-10-16T08:36:16;96722.63;;;16.21;82.80
3697;BME280;60662;48.810;8.872;2022-10-16T08:37:18;96718.56;;;16.29;82.53
3697;BME280;60662;48.810;8.872;2022-10-16T08:38:19;96726.34;;;16.31;82.01
3697;BME280;60662;48.810;8.872;2022-10-16T08:39:21;96718.56;;;16.29;81.35
3697;BME280;60662;48.810;8.872;2022-10-16T09:00:56;96730.66;;;16.98;77.46
3697;BME280;60662;48.810;8.872;2022-10-16T09:01:58;96719.88;;;17.14;76.81
3697;BME280;60662;48.810;8.872;2022-10-16T09:11:57;96752.13;;;17.93;74.12
3697;BME280;60662;48.810;8.872;2022-10-16T09:13:29;96753.75;;;18.07;74.00
3697;BME280;60662;48.810;8.872;2022-10-16T09:14:54;96753.41;;;17.75;75.77
3697;BME280;60662;48.810;8.872;2022-10-16T09:28:26;96746.63;;;18.21;74.59
3697;BME280;60662;48.810;8.872;2022-10-16T09:29:28;96751.53;;;18.50;73.75
3697;BME280;60662;48.810;8.872;2022-10-16T09:30:30;96751.81;;;18.58;74.06
3697;BME280;60662;48.810;8.872;2022-10-16T09:31:31;96754.63;;;18.43;73.89
3697;BME280;60662;48.810;8.872;2022-10-16T09:32:33;96757.50;;;18.40;73.96
3697;BME280;60662;48.810;8.872;2022-10-16T09:40:06;96756.81;;;20.64;67.26
3697;BME280;60662;48.810;8.872;2022-10-16T09:41:28;96732.78;;;20.65;66.94
3697;BME280;60662;48.810;8.872;2022-10-16T09:42:34;96768.16;;;20.87;65.69
3697;BME280;60662;48.810;8.872;2022-10-16T09:43:55;96759.53;;;20.95;66.74
3697;BME280;60662;48.810;8.872;2022-10-16T09:44:57;96779.16;;;21.87;65.21
3697;BME280;60662;48.810;8.872;2022-10-16T09:46:04;96784.22;;;23.64;60.80
3697;BME280;60662;48.810;8.872;2022-10-16T09:47:21;96776.63;;;25.50;56.72
3697;BME280;60662;48.810;8.872;2022-10-16T09:48:27;96773.94;;;25.50;56.11
3697;BME280;60662;48.810;8.872;2022-10-16T09:49:33;96777.59;;;25.23;56.55
3697;BME280;60662;48.810;8.872;2022-10-16T09:50:35;96773.72;;;24.37;58.44
3697;BME280;60662;48.810;8.872;2022-10-16T09:58:12;96780.38;;;22.53;62.13
3697;BME280;60662;48.810;8.872;2022-10-16T09:59:16;96784.97;;;22.99;61.61
3697;BME280;60662;48.810;8.872;2022-10-16T10:00:24;96762.59;;;21.42;64.04
3697;BME280;60662;48.810;8.872;2022-10-16T10:01:32;96781.09;;;21.84;63.99
3697;BME280;60662;48.810;8.872;2022-10-16T10:02:38;96776.69;;;22.24;62.87
3697;BME280;60662;48.810;8.872;2022-10-16T10:10:06;96786.81;;;19.99;67.45
3697;BME280;60662;48.810;8.872;2022-10-16T10:11:39;96791.03;;;20.46;66.58
3697;BME280;60662;48.810;8.872;2022-10-16T10:12:41;96774.41;;;20.32;64.81
3697;BME280;60662;48.810;8.872;2022-10-16T10:13:43;96792.38;;;20.73;64.81
3697;BME280;60662;48.810;8.872;2022-10-16T10:14:47;96783.25;;;20.54;64.35
3697;BME280;60662;48.810;8.872;2022-10-16T10:27:15;96798.56;;;20.29;66.10
3697;BME280;60662;48.810;8.872;2022-10-16T10:29:59;96800.53;;;20.48;65.93
3697;BME280;60662;48.810;8.872;2022-10-16T10:32:32;96784.66;;;20.37;65.50
3697;BME280;60662;48.810;8.872;2022-10-16T10:35:15;96784.88;;;20.78;63.93
3697;BME280;60662;48.810;8.872;2022-10-16T10:36:37;96801.34;;;21.45;63.58
3697;BME280;60662;48.810;8.872;2022-10-16T10:37:58;96794.94;;;22.58;60.70
3697;BME280;60662;48.810;8.872;2022-10-16T10:39:18;96785.69;;;22.43;59.43
3697;BME280;60662;48.810;8.872;2022-10-16T10:42:15;96797.00;;;22.84;59.31
3697;BME280;60662;48.810;8.872;2022-10-16T10:43:41;96798.84;;;22.93;59.28
3697;BME280;60662;48.810;8.872;2022-10-16T10:45:04;96800.34;;;23.15;57.40
3697;BME280;60662;48.810;8.872;2022-10-16T10:46:31;96790.84;;;22.83;57.98
3697;BME280;60662;48.810;8.872;2022-10-16T10:49:10;96793.09;;;22.69;58.37
3697;BME280;60662;48.810;8.872;2022-10-16T10:50:33;96802.75;;;22.99;58.32
3697;BME280;60662;48.810;8.872;2022-10-16T10:53:09;96796.59;;;24.93;54.57
3697;BME280;60662;48.810;8.872;2022-10-16T10:54:37;96778.63;;;27.25;49.60
3697;BME280;60662;48.810;8.872;2022-10-16T10:57:01;96779.66;;;27.24;47.59
3697;BME280;60662;48.810;8.872;2022-10-16T11:01:15;96795.06;;;26.04;49.85
3697;BME280;60662;48.810;8.872;2022-10-16T11:04:03;96787.47;;;25.83;50.84
3697;BME280;60662;48.810;8.872;2022-10-16T11:06:33;96785.44;;;25.42;51.37
3697;BME280;60662;48.810;8.872;2022-10-16T11:07:45;96793.19;;;25.54;51.97
3697;BME280;60662;48.810;8.872;2022-10-16T11:08:53;96793.03;;;25.11;52.56
3697;BME280;60662;48.810;8.872;2022-10-16T11:10:12;96786.91;;;25.19;52.57
3697;BME280;60662;48.810;8.872;2022-10-16T11:11:27;96801.13;;;25.19;53.33
3697;BME280;60662;48.810;8.872;2022-10-16T11:12:39;96786.59;;;24.96;52.68
3697;BME280;60662;48.810;8.872;2022-10-16T11:14:04;96800.31;;;25.01;52.79
3697;BME280;60662;48.810;8.872;2022-10-16T11:15:24;96784.63;;;24.25;54.15
3697;BME280;60662;48.810;8.872;2022-10-16T11:16:29;96777.59;;;24.60;54.73
3697;BME280;60662;48.810;8.872;2022-10-16T11:17:38;96771.97;;;24.64;54.35
3697;BME280;60662;48.810;8.872;2022-10-16T11:18:49;96794.91;;;24.56;54.78
3697;BME280;60662;48.810;8.872;2022-10-16T11:19:57;96785.59;;;24.60;55.18
3697;BME280;60662;48.810;8.872;2022-10-16T11:21:04;96771.72;;;24.21;55.35
3697;BME280;60662;48.810;8.872;2022-10-16T11:22:32;96787.47;;;23.96;57.29
3697;BME280;60662;48.810;8.872;2022-10-16T11:25:12;96777.94;;;22.98;58.37
3697;BME280;60662;48.810;8.872;2022-10-16T11:26:19;96787.44;;;23.21;57.68
3697;BME280;60662;48.810;8.872;2022-10-16T11:34:12;96772.47;;;23.85;56.53
3697;BME280;60662;48.810;8.872;2022-10-16T11:35:23;96782.19;;;24.68;55.28
3697;BME280;60662;48.810;8.872;2022-10-16T11:37:53;96789.28;;;24.59;54.70
3697;BME280;60662;48.810;8.872;2022-10-16T11:40:19;96784.56;;;24.07;55.51
3697;BME280;60662;48.810;8.872;2022-10-16T11:41:28;96788.72;;;24.20;55.47
3697;BME280;60662;48.810;8.872;2022-10-16T11:42:37;96784.38;;;23.91;56.57
3697;BME280;60662;48.810;8.872;2022-10-16T11:43:43;96784.38;;;23.63;58.25
3697;BME280;60662;48.810;8.872;2022-10-16T11:44:55;96782.88;;;24.34;56.42
3697;BME280;60662;48.810;8.872;2022-10-16T11:46:04;96778.22;;;24.36;55.35
3697;BME280;60662;48.810;8.872;2022-10-16T11:49:15;96779.03;;;24.91;54.44
3697;BME280;60662;48.810;8.872;2022-10-16T11:50:32;96770.78;;;25.29;53.67
3697;BME280;60662;48.810;8.872;2022-10-16T11:51:43;96773.09;;;25.84;51.89
3697;BME280;60662;48.810;8.872;2022-10-16T11:54:26;96775.13;;;25.03;53.44
3697;BME280;60662;48.810;8.872;2022-10-16T11:55:41;96770.50;;;24.87;53.61
3697;BME280;60662;48.810;8.872;2022-10-16T11:56:48;96776.00;;;24.86;53.99
3697;BME280;60662;48.810;8.872;2022-10-16T11:58:01;96780.19;;;24.88;54.48
3697;BME280;60662;48.810;8.872;2022-10-16T12:00:31;96783.09;;;24.23;56.18
3697;BME280;60662;48.810;8.872;2022-10-16T12:01:41;96768.59;;;23.79;56.81
3697;BME280;60662;48.810;8.872;2022-10-16T12:03:08;96776.88;;;23.39;57.36
3697;BME280;60662;48.810;8.872;2022-10-16T12:16:23;96757.53;;;24.92;53.85
3697;BME280;60662;48.810;8.872;2022-10-16T12:17:35;96774.72;;;25.16;52.97
3697;BME280;60662;48.810;8.872;2022-10-16T12:18:43;96779.09;;;25.78;51.42
3697;BME280;60662;48.810;8.872;2022-10-16T12:20:00;96782.66;;;26.54;51.08
3697;BME280;60662;48.810;8.872;2022-10-16T12:21:02;96775.34;;;26.89;49.74
3697;BME280;60662;48.810;8.872;2022-10-16T12:22:17;96775.28;;;27.14;48.80
3697;BME280;60662;48.810;8.872;2022-10-16T12:23:20;96778.56;;;27.66;47.40
3697;BME280;60662;48.810;8.872;2022-10-16T12:24:39;96785.19;;;27.86;47.01
3697;BME280;60662;48.810;8.872;2022-10-16T12:25:42;96784.38;;;27.78;46.87
3697;BME280;60662;48.810;8.872;2022-10-16T12:26:48;96786.34;;;27.84;46.87
3697;BME280;60662;48.810;8.872;2022-10-16T12:28:18;96786.84;;;28.27;46.58
3697;BME280;60662;48.810;8.872;2022-10-16T12:30:22;96786.09;;;28.42;46.31
3697;BME280;60662;48.810;8.872;2022-10-16T12:31:37;96778.78;;;28.50;45.74
3697;BME280;60662;48.810;8.872;2022-10-16T12:33:21;96776.31;;;27.86;47.38
3697;BME280;60662;48.810;8.872;2022-10-16T12:34:28;96773.31;;;28.21;46.91
3697;BME280;60662;48.810;8.872;2022-10-16T12:35:33;96774.94;;;27.42;48.13
3697;BME280;60662;48.810;8.872;2022-10-16T12:36:36;96770.63;;;26.67;49.32
3697;BME280;60662;48.810;8.872;2022-10-16T12:37:38;96746.69;;;25.89;50.18
3697;BME280;60662;48.810;8.872;2022-10-16T12:38:48;96771.94;;;25.87;52.13
3697;BME280;60662;48.810;8.872;2022-10-16T12:39:51;96752.28;;;25.62;52.60
3697;BME280;60662;48.810;8.872;2022-10-16T12:41:03;96772.75;;;25.79;52.29
3697;BME280;60662;48.810;8.872;2022-10-16T12:44:35;96779.34;;;25.58;54.24
3697;BME280;60662;48.810;8.872;2022-10-16T12:52:04;96774.53;;;25.18;51.86
3697;BME280;60662;48.810;8.872;2022-10-16T12:53:22;96779.91;;;24.73;53.31
3697;BME280;60662;48.810;8.872;2022-10-16T12:54:38;96687.78;;;23.97;53.48
3697;BME280;60662;48.810;8.872;2022-10-16T12:56:04;96773.41;;;24.40;53.99
3697;BME280;60662;48.810;8.872;2022-10-16T12:57:27;96764.03;;;24.36;53.99
3697;BME280;60662;48.810;8.872;2022-10-16T13:00:57;96787.53;;;24.86;53.87
3697;BME280;60662;48.810;8.872;2022-10-16T13:03:46;96787.91;;;24.37;55.42
3697;BME280;60662;48.810;8.872;2022-10-16T13:09:37;96781.31;;;25.30;56.63
3697;BME280;60662;48.810;8.872;2022-10-16T13:11:14;96786.38;;;25.15;57.97
3697;BME280;60662;48.810;8.872;2022-10-16T13:14:20;96791.28;;;24.75;60.01
3697;BME280;60662;48.810;8.872;2022-10-16T13:16:21;96791.97;;;24.77;59.56
3697;BME280;60662;48.810;8.872;2022-10-16T13:17:10;96790.66;;;24.82;60.35
3697;BME280;60662;48.810;8.872;2022-10-16T13:18:23;96778.59;;;24.59;60.64
3697;BME280;60662;48.810;8.872;2022-10-16T13:19:41;96790.41;;;24.57;60.83
3697;BME280;60662;48.810;8.872;2022-10-16T13:23:23;96794.84;;;24.48;61.18
3697;BME280;60662;48.810;8.872;2022-10-16T13:27:41;96793.84;;;24.49;60.97
3697;BME280;60662;48.810;8.872;2022-10-16T13:28:46;96802.38;;;24.53;60.86
3697;BME280;60662;48.810;8.872;2022-10-16T13:29:53;96796.41;;;24.69;60.12
3697;BME280;60662;48.810;8.872;2022-10-16T13:30:58;96782.44;;;25.19;58.68
3697;BME280;60662;48.810;8.872;2022-10-16T13:32:01;96788.81;;;25.87;57.17
3697;BME280;60662;48.810;8.872;2022-10-16T13:33:20;96798.13;;;26.10;56.05
3697;BME280;60662;48.810;8.872;2022-10-16T13:34:28;96792.84;;;26.51;55.39
3697;BME280;60662;48.810;8.872;2022-10-16T13:35:31;96721.56;;;26.25;54.62
3697;BME280;60662;48.810;8.872;2022-10-16T13:36:45;96784.47;;;26.46;54.93
3697;BME280;60662;48.810;8.872;2022-10-16T13:37:46;96802.78;;;26.92;54.51
3697;BME280;60662;48.810;8.872;2022-10-16T13:38:48;96795.72;;;27.40;53.35
3697;BME280;60662;48.810;8.872;2022-10-16T13:39:50;96801.47;;;27.77;52.04
3697;BME280;60662;48.810;8.872;2022-10-16T13:40:53;96805.59;;;27.31;53.00
3697;BME280;60662;48.810;8.872;2022-10-16T13:42:25;96794.91;;;26.82;53.49
3697;BME280;60662;48.810;8.872;2022-10-16T13:43:41;96799.44;;;26.89;53.64
3697;BME280;60662;48.810;8.872;2022-10-16T13:44:51;96796.69;;;26.40;55.11
3697;BME280;60662;48.810;8.872;2022-10-16T13:47:01;96788.28;;;25.84;56.38
3697;BME280;60662;48.810;8.872;2022-10-16T13:48:09;96790.34;;;25.55;56.96
3697;BME280;60662;48.810;8.872;2022-10-16T13:49:17;96784.16;;;25.29;57.26
3697;BME280;60662;48.810;8.872;2022-10-16T13:50:21;96795.06;;;25.09;58.20
3697;BME280;60662;48.810;8.872;2022-10-16T13:51:23;96785.53;;;24.88;59.19
3697;BME280;60662;48.810;8.872;2022-10-16T13:52:24;96789.53;;;24.66;59.40
3697;BME280;60662;48.810;8.872;2022-10-16T13:53:26;96777.44;;;24.44;60.09
3697;BME280;60662;48.810;8.872;2022-10-16T13:54:28;96793.66;;;24.33;60.67
3697;BME280;60662;48.810;8.872;2022-10-16T13:55:32;96789.78;;;24.27;61.22
3697;BME280;60662;48.810;8.872;2022-10-16T13:56:34;96791.66;;;24.44;60.55
3697;BME280;60662;48.810;8.872;2022-10-16T14:15:18;96801.22;;;23.54;63.52
3697;BME280;60662;48.810;8.872;2022-10-16T14:16:23;96798.63;;;23.44;64.20
3697;BME280;60662;48.810;8.872;2022-10-16T14:17:30;96804.63;;;23.46;64.18
3697;BME280;60662;48.810;8.872;2022-10-16T14:18:33;96802.44;;;23.31;64.49
3697;BME280;60662;48.810;8.872;2022-10-16T14:19:36;96797.09;;;23.31;64.53
3697;BME280;60662;48.810;8.872;2022-10-16T14:20:37;96798.50;;;23.36;64.42
3697;BME280;60662;48.810;8.872;2022-10-16T14:21:40;96810.84;;;23.37;64.68
3697;BME280;60662;48.810;8.872;2022-10-16T14:22:42;96801.84;;;23.38;64.69
3697;BME280;60662;48.810;8.872;2022-10-16T14:23:44;96773.72;;;23.25;64.79
3697;BME280;60662;48.810;8.872;2022-10-16T14:24:45;96802.28;;;23.33;64.95
3697;BME280;60662;48.810;8.872;2022-10-16T14:25:47;96786.88;;;23.17;64.74
3697;BME280;60662;48.810;8.872;2022-10-16T14:26:48;96804.41;;;23.29;64.97
3697;BME280;60662;48.810;8.872;2022-10-16T14:29:12;96809.28;;;23.34;64.38
3697;BME280;60662;48.810;8.872;2022-10-16T14:30:19;96805.97;;;23.12;65.34
3697;BME280;60662;48.810;8.872;2022-10-16T14:31:30;96797.44;;;23.19;64.85
3697;BME280;60662;48.810;8.872;2022-10-16T14:32:32;96789.56;;;23.07;64.85
3697;BME280;60662;48.810;8.872;2022-10-16T14:33:34;96803.28;;;23.22;64.88
3697;BME280;60662;48.810;8.872;2022-10-16T14:34:37;96808.34;;;23.15;65.16
3697;BME280;60662;48.810;8.872;2022-10-16T14:35:41;96800.47;;;23.14;64.75
3697;BME280;60662;48.810;8.872;2022-10-16T14:36:42;96798.78;;;23.13;64.84
3697;BME280;60662;48.810;8.872;2022-10-16T14:37:44;96778.22;;;22.95;64.87
3697;BME280;60662;48.810;8.872;2022-10-16T14:39:06;96802.59;;;23.30;65.03
3697;BME280;60662;48.810;8.872;2022-10-16T14:40:25;96799.25;;;23.66;63.99
3697;BME280;60662;48.810;8.872;2022-10-16T14:41:28;96795.63;;;23.57;63.58
3697;BME280;60662;48.810;8.872;2022-10-16T14:42:29;96794.88;;;23.64;62.93
3697;BME280;60662;48.810;8.872;2022-10-16T14:43:34;96799.84;;;23.87;62.85
3697;BME280;60662;48.810;8.872;2022-10-16T14:44:40;96794.84;;;24.02;62.34
3697;BME280;60662;48.810;8.872;2022-10-16T14:45:41;96807.47;;;24.10;62.08
3697;BME280;60662;48.810;8.872;2022-10-16T14:46:45;96806.63;;;24.27;61.54
3697;BME280;60662;48.810;8.872;2022-10-16T14:47:52;96771.91;;;23.91;62.03
3697;BME280;60662;48.810;8.872;2022-10-16T14:57:02;96792.38;;;22.27;64.91
3697;BME280;60662;48.810;8.872;2022-10-16T14:58:04;96791.03;;;21.30;69.22
3697;BME280;60662;48.810;8.872;2022-10-16T14:59:06;96794.63;;;21.19;69.98
3697;BME280;60662;48.810;8.872;2022-10-16T15:00:19;96798.09;;;21.62;68.51
3697;BME280;60662;48.810;8.872;2022-10-16T15:01:25;96768.28;;;21.68;68.03
3697;BME280;60662;48.810;8.872;2022-10-16T15:02:31;96795.13;;;22.06;67.23
3697;BME280;60662;48.810;8.872;2022-10-16T15:20:41;96793.72;;;24.69;59.85
3697;BME280;60662;48.810;8.872;2022-10-16T15:21:43;96797.31;;;24.77;59.66
3697;BME280;60662;48.810;8.872;2022-10-16T15:22:44;96810.28;;;24.72;59.87
3697;BME280;60662;48.810;8.872;2022-10-16T15:23:46;96804.97;;;24.44;59.57
3697;BME280;60662;48.810;8.872;2022-10-16T15:24:47;96808.53;;;24.17;60.30
3697;BME280;60662;48.810;8.872;2022-10-16T15:25:54;96813.44;;;23.84;60.66
3697;BME280;60662;48.810;8.872;2022-10-16T15:32:03;96817.91;;;23.66;61.57
3697;BME280;60662;48.810;8.872;2022-10-16T15:33:12;96798.38;;;23.65;60.51
3697;BME280;60662;48.810;8.872;2022-10-16T15:34:14;96797.09;;;23.69;61.25
3697;BME280;60662;48.810;8.872;2022-10-16T15:35:16;96808.56;;;23.79;60.95
3697;BME280;60662;48.810;8.872;2022-10-16T15:36:25;96797.91;;;23.42;61.04
3697;BME280;60662;48.810;8.872;2022-10-16T15:37:27;96810.75;;;23.19;62.25
3697;BME280;60662;48.810;8.872;2022-10-16T15:38:29;96812.38;;;23.29;62.55
3697;BME280;60662;48.810;8.872;2022-10-16T15:39:31;96801.91;;;23.18;62.25
3697;BME280;60662;48.810;8.872;2022-10-16T15:40:32;96802.59;;;23.30;62.45
3697;BME280;60662;48.810;8.872;2022-10-16T15:41:33;96805.03;;;23.41;62.02
3697;BME280;60662;48.810;8.872;2022-10-16T15:42:35;96804.69;;;23.64;60.78
3697;BME280;60662;48.810;8.872;2022-10-16T15:43:36;96801.72;;;23.77;61.02
3697;BME280;60662;48.810;8.872;2022-10-16T15:44:41;96806.44;;;23.83;60.80
3697;BME280;60662;48.810;8.872;2022-10-16T15:45:43;96806.13;;;23.58;61.13
3697;BME280;60662;48.810;8.872;2022-10-16T15:46:44;96798.81;;;23.03;62.72
3697;BME280;60662;48.810;8.872;2022-10-16T15:47:46;96795.47;;;22.91;63.45
3697;BME280;60662;48.810;8.872;2022-10-16T15:48:49;96793.50;;;22.93;63.19
3697;BME280;60662;48.810;8.872;2022-10-16T15:49:51;96787.16;;;23.14;62.48
3697;BME280;60662;48.810;8.872;2022-10-16T16:47:23;96786.34;;;18.68;75.82
3697;BME280;60662;48.810;8.872;2022-10-16T16:48:25;96825.75;;;18.95;75.50
3697;BME280;60662;48.810;8.872;2022-10-16T16:49:27;96827.50;;;18.83;75.85
